Time;durP1;ratioP1;P1;durP2;ratioP2;P2;SDS_P1;SDS_P2;PMS_P1;PMS_P2;Temp;Humidity;BMP_temperature;BMP_pressure;BME280_temperature;BME280_humidity;BME280_pressure;Samples;Min_cycle;Max_cycle;Signal;HPM_P1;HPM_P2
2022/09/12 00:01:51;;;;;;;11.20;10.05;;;13.30;99.90;;;;;;5019821;28;20085;-68
2022/09/12 00:04:17;;;;;;;11.48;10.27;;;13.30;99.90;;;;;;5004243;28;20049;-68
2022/09/12 00:06:43;;;;;;;12.13;10.73;;;13.30;99.90;;;;;;5025854;28;20041;-70
2022/09/12 00:09:12;;;;;;;11.43;10.25;;;13.30;99.90;;;;;;5035550;28;20099;-69
2022/09/12 00:11:40;;;;;;;14.52;12.98;;;13.30;99.90;;;;;;5025113;28;20472;-69
2022/09/12 00:14:07;;;;;;;17.30;15.13;;;13.30;99.90;;;;;;5038606;28;20500;-69
2022/09/12 00:16:35;;;;;;;16.77;14.98;;;13.50;99.90;;;;;;5007180;28;20591;-69
2022/09/12 00:19:02;;;;;;;18.25;16.33;;;13.40;99.90;;;;;;5018951;28;20037;-68
2022/09/12 00:21:28;;;;;;;18.70;16.70;;;13.40;99.90;;;;;;5040240;28;20041;-69
2022/09/12 00:23:53;;;;;;;19.58;17.05;;;13.40;99.90;;;;;;5039883;28;20076;-69
2022/09/12 00:26:20;;;;;;;20.67;18.13;;;13.40;99.90;;;;;;5035297;28;20095;-69
2022/09/12 00:28:46;;;;;;;19.42;16.83;;;13.50;99.90;;;;;;5042369;28;20068;-69
2022/09/12 00:31:16;;;;;;;20.92;18.35;;;13.40;99.90;;;;;;5025398;28;20481;-69
2022/09/12 00:33:42;;;;;;;20.33;18.15;;;13.40;99.90;;;;;;5040723;28;20053;-69
2022/09/12 00:36:10;;;;;;;24.10;17.80;;;13.50;99.90;;;;;;5037202;28;20120;-70
2022/09/12 00:38:37;;;;;;;21.13;18.30;;;13.40;99.90;;;;;;5036082;28;20053;-69
2022/09/12 00:41:22;;;;;;;22.20;19.23;;;13.50;99.90;;;;;;5043819;28;20049;-69
2022/09/12 00:44:19;;;;;;;20.83;18.15;;;13.30;99.90;;;;;;5043025;28;20037;-69
2022/09/12 00:47:10;;;;;;;22.48;19.42;;;13.30;99.90;;;;;;5005367;28;20049;-70
2022/09/12 00:49:51;;;;;;;23.15;20.15;;;13.30;99.90;;;;;;5038276;28;20085;-69
2022/09/12 00:52:38;;;;;;;25.75;20.70;;;13.30;99.90;;;;;;5017655;28;20100;-68
2022/09/12 00:55:10;;;;;;;21.73;19.40;;;13.30;99.90;;;;;;5040721;28;20058;-69
2022/09/12 00:57:41;;;;;;;25.73;20.92;;;13.30;99.90;;;;;;5019533;28;20577;-68
2022/09/12 01:00:14;;;;;;;23.08;20.48;;;13.20;99.90;;;;;;5027134;28;20070;-69
2022/09/12 01:02:47;;;;;;;23.95;21.15;;;13.20;99.90;;;;;;5033396;28;20397;-68
2022/09/12 01:05:15;;;;;;;25.30;21.45;;;13.20;99.90;;;;;;5019545;28;20124;-69
2022/09/12 01:07:43;;;;;;;24.08;21.38;;;13.20;99.90;;;;;;5029507;28;20075;-68
2022/09/12 01:10:10;;;;;;;28.02;21.70;;;13.30;99.90;;;;;;5043768;28;20451;-69
2022/09/12 01:12:39;;;;;;;25.42;22.23;;;13.20;99.90;;;;;;5039758;28;20596;-68
2022/09/12 01:15:06;;;;;;;29.27;23.98;;;13.20;99.90;;;;;;5041727;28;20389;-69
2022/09/12 01:17:57;;;;;;;28.73;24.05;;;13.20;99.90;;;;;;5021673;28;20061;-68
2022/09/12 01:20:50;;;;;;;31.35;24.35;;;13.20;99.90;;;;;;5036240;28;20045;-69
2022/09/12 01:23:30;;;;;;;26.33;23.20;;;13.20;99.90;;;;;;5031686;28;20161;-69
2022/09/12 01:26:25;;;;;;;26.42;23.25;;;13.20;99.90;;;;;;5022624;28;20053;-69
2022/09/12 01:29:31;;;;;;;28.27;23.98;;;13.20;99.90;;;;;;5017104;28;20048;-69
2022/09/12 01:32:03;;;;;;;27.40;24.45;;;13.20;99.90;;;;;;5057652;28;20059;-68
2022/09/12 01:34:28;;;;;;;;;;;13.20;99.90;;;;;;5041796;28;20127;-69
2022/09/12 01:37:14;;;;;;;25.30;22.17;;;13.20;99.90;;;;;;5023297;28;20027;-70
2022/09/12 01:39:59;;;;;;;27.40;22.85;;;13.10;99.90;;;;;;5041808;28;20060;-69
2022/09/12 01:42:33;;;;;;;27.52;22.67;;;13.10;99.90;;;;;;5039069;28;20578;-68
2022/09/12 01:45:15;;;;;;;26.08;22.25;;;13.00;99.90;;;;;;5028154;28;20048;-69
2022/09/12 01:48:11;;;;;;;24.65;21.35;;;13.00;99.90;;;;;;5016622;28;20048;-69
2022/09/12 01:51:04;;;;;;;25.85;22.98;;;13.00;99.90;;;;;;5040396;28;20053;-69
2022/09/12 01:53:38;;;;;;;27.13;23.80;;;13.00;99.90;;;;;;5028987;28;20501;-69
2022/09/12 01:56:14;;;;;;;28.85;24.30;;;13.00;99.90;;;;;;5031069;28;20049;-69
2022/09/12 01:58:52;;;;;;;28.80;24.90;;;13.20;99.90;;;;;;5034957;28;20068;-69
2022/09/12 02:01:32;;;;;;;29.50;24.35;;;13.10;99.90;;;;;;5041865;28;20044;-69
2022/09/12 02:04:15;;;;;;;29.70;23.88;;;13.00;99.90;;;;;;5042277;28;20499;-69
2022/09/12 02:07:05;;;;;;;32.22;24.75;;;13.00;99.90;;;;;;5028250;28;20595;-70
2022/09/12 02:09:53;;;;;;;30.77;23.70;;;12.90;99.90;;;;;;5023473;28;20045;-69
2022/09/12 02:12:23;;;;;;;29.80;24.10;;;12.90;99.90;;;;;;5021233;28;20048;-69
2022/09/12 02:14:54;;;;;;;28.43;23.70;;;12.80;99.90;;;;;;5008028;28;20045;-69
2022/09/12 02:17:25;;;;;;;26.83;21.73;;;12.90;99.90;;;;;;5019013;28;20052;-69
2022/09/12 02:19:53;;;;;;;22.25;19.40;;;12.90;99.90;;;;;;5045255;28;20049;-69
2022/09/12 02:22:21;;;;;;;20.13;18.00;;;12.80;99.90;;;;;;5041512;28;20106;-69
2022/09/12 02:24:51;;;;;;;20.67;17.90;;;12.70;99.90;;;;;;5041758;28;20052;-69
2022/09/12 02:27:37;;;;;;;23.35;19.40;;;12.70;99.90;;;;;;5019404;28;20565;-69
2022/09/12 02:30:04;;;;;;;25.20;20.88;;;12.70;99.90;;;;;;5013263;28;20061;-69
2022/09/12 02:32:45;;;;;;;26.38;23.00;;;12.70;99.90;;;;;;5009621;28;20507;-69
2022/09/12 02:35:32;;;;;;;37.00;24.63;;;12.70;99.90;;;;;;5023548;28;20048;-69
2022/09/12 02:38:16;;;;;;;25.70;21.45;;;12.70;99.90;;;;;;4989728;28;20107;-69
2022/09/12 02:40:42;;;;;;;33.03;24.23;;;12.60;99.90;;;;;;5026131;28;20496;-69
2022/09/12 02:43:08;;;;;;;27.58;22.88;;;12.60;99.90;;;;;;5041908;28;20075;-69
2022/09/12 02:45:35;;;;;;;37.70;24.88;;;12.60;99.90;;;;;;5041845;28;20044;-69
2022/09/12 02:48:13;;;;;;;36.33;25.38;;;12.60;99.90;;;;;;5021953;28;20055;-69
2022/09/12 02:50:40;;;;;;;31.30;24.38;;;12.50;99.90;;;;;;5039823;28;20054;-69
2022/09/12 02:53:07;;;;;;;33.00;26.02;;;12.60;99.90;;;;;;5033312;28;20058;-69
2022/09/12 02:55:36;;;;;;;35.10;26.92;;;12.60;99.90;;;;;;5023258;28;20045;-69
2022/09/12 02:58:04;;;;;;;34.38;25.70;;;12.60;99.90;;;;;;5007692;28;20531;-69
2022/09/12 03:00:55;;;;;;;35.28;25.08;;;12.50;99.90;;;;;;5019138;28;20045;-69
2022/09/12 03:03:29;;;;;;;28.60;17.88;;;12.50;99.90;;;;;;5021664;28;20489;-69
2022/09/12 03:05:59;;;;;;;54.85;23.95;;;12.40;99.90;;;;;;5020997;28;20470;-69
2022/09/12 03:08:35;;;;;;;33.45;24.42;;;12.30;99.90;;;;;;5004553;28;20567;-69
2022/09/12 03:11:10;;;;;;;71.00;29.13;;;12.40;99.90;;;;;;5019805;28;20053;-68
2022/09/12 03:13:45;;;;;;;53.25;27.58;;;12.40;99.90;;;;;;5019876;28;20049;-69
2022/09/12 03:16:32;;;;;;;45.17;26.55;;;12.30;99.90;;;;;;5012452;28;20052;-70
2022/09/12 03:19:35;;;;;;;31.15;23.88;;;12.30;99.90;;;;;;5014134;28;20137;-68
2022/09/12 03:22:13;;;;;;;40.45;25.88;;;12.20;99.90;;;;;;5021013;28;20050;-69
2022/09/12 03:24:47;;;;;;;36.55;26.35;;;12.30;99.90;;;;;;4999880;28;20049;-69
2022/09/12 03:27:21;;;;;;;41.85;29.33;;;12.20;99.90;;;;;;5001250;28;20073;-68
2022/09/12 03:29:47;;;;;;;35.65;27.58;;;12.30;99.90;;;;;;5018736;28;20132;-68
2022/09/12 03:32:14;;;;;;;38.08;28.40;;;12.30;99.90;;;;;;5020894;28;20045;-69
2022/09/12 03:34:39;;;;;;;38.92;28.08;;;12.40;99.90;;;;;;5020578;28;20034;-69
2022/09/12 03:37:05;;;;;;;43.53;30.23;;;12.40;99.90;;;;;;5002568;28;20096;-69
2022/09/12 03:39:31;;;;;;;40.25;29.08;;;12.30;99.90;;;;;;5020246;28;20033;-69
2022/09/12 03:41:57;;;;;;;39.85;28.42;;;12.30;99.90;;;;;;5023994;28;20076;-69
2022/09/12 03:44:24;;;;;;;40.45;28.30;;;12.30;99.90;;;;;;5024382;28;20495;-69
2022/09/12 03:46:50;;;;;;;36.45;27.52;;;12.40;99.90;;;;;;5004614;28;20343;-69
2022/09/12 03:49:16;;;;;;;35.22;25.90;;;12.40;99.90;;;;;;5020792;28;20045;-69
2022/09/12 03:51:42;;;;;;;32.75;24.67;;;12.30;99.90;;;;;;5019970;28;20049;-69
2022/09/12 03:54:08;;;;;;;30.42;24.20;;;12.20;99.90;;;;;;5019763;28;20052;-69
2022/09/12 03:56:34;;;;;;;21.58;19.27;;;12.20;99.90;;;;;;5023581;28;20053;-69
2022/09/12 03:59:00;;;;;;;32.20;26.35;;;12.10;99.90;;;;;;5038394;28;20056;-69
2022/09/12 04:01:26;;;;;;;18.55;16.55;;;12.20;99.90;;;;;;5044688;28;20041;-69
2022/09/12 04:03:51;;;;;;;29.20;22.77;;;12.00;99.90;;;;;;5048079;28;20048;-69
2022/09/12 04:06:21;;;;;;;34.83;26.17;;;12.10;99.90;;;;;;5018442;28;20045;-70
2022/09/12 04:08:49;;;;;;;30.77;24.58;;;12.20;99.90;;;;;;5020878;28;20107;-69
2022/09/12 04:11:16;;;;;;;17.60;15.23;;;12.20;99.90;;;;;;5022831;28;20041;-69
2022/09/12 04:13:43;;;;;;;14.52;13.02;;;12.10;99.90;;;;;;5023887;28;20111;-69
2022/09/12 04:16:10;;;;;;;13.13;11.82;;;11.60;99.90;;;;;;5039418;28;20041;-70
2022/09/12 04:18:36;;;;;;;17.02;14.50;;;11.50;99.90;;;;;;5018127;28;20088;-69
2022/09/12 04:21:07;;;;;;;23.67;18.58;;;11.60;99.90;;;;;;5023229;28;20076;-69
2022/09/12 04:23:34;;;;;;;39.85;28.23;;;11.80;99.90;;;;;;5021880;28;20042;-68
2022/09/12 04:26:01;;;;;;;44.95;29.48;;;12.00;99.90;;;;;;5024848;28;20051;-69
2022/09/12 04:28:28;;;;;;;47.80;29.58;;;12.10;99.90;;;;;;5028311;28;20045;-68
2022/09/12 04:30:54;;;;;;;23.88;19.85;;;12.10;99.90;;;;;;5021895;28;20048;-69
2022/09/12 04:33:20;;;;;;;18.23;14.50;;;11.80;99.90;;;;;;5021281;28;20052;-69
2022/09/12 04:35:47;;;;;;;14.27;12.75;;;11.60;99.90;;;;;;5044585;28;20080;-69
2022/09/12 04:38:13;;;;;;;30.80;21.80;;;11.40;99.90;;;;;;5010627;28;20047;-69
2022/09/12 04:40:38;;;;;;;50.92;30.58;;;11.70;99.90;;;;;;5045028;28;20439;-68
2022/09/12 04:43:05;;;;;;;57.55;35.10;;;12.00;99.90;;;;;;5023798;28;20455;-69
2022/09/12 04:45:31;;;;;;;55.38;34.70;;;12.20;99.90;;;;;;5025191;28;20123;-68
2022/09/12 04:47:57;;;;;;;65.63;39.00;;;12.30;99.90;;;;;;5025537;28;20059;-69
2022/09/12 04:50:23;;;;;;;60.53;38.08;;;12.20;99.90;;;;;;5042822;28;20057;-69
2022/09/12 04:52:53;;;;;;;61.67;39.35;;;12.40;99.90;;;;;;5022090;28;20045;-69
2022/09/12 04:55:19;;;;;;;61.08;39.78;;;12.50;99.90;;;;;;5008661;28;20049;-68
2022/09/12 04:57:45;;;;;;;60.72;39.55;;;12.50;99.90;;;;;;5024979;28;20052;-69
2022/09/12 05:00:14;;;;;;;59.03;36.65;;;12.60;99.90;;;;;;5026888;28;20047;-69
2022/09/12 05:02:41;;;;;;;57.53;37.22;;;12.60;99.90;;;;;;5041282;28;20480;-69
2022/09/12 05:05:07;;;;;;;56.45;36.42;;;12.60;99.90;;;;;;5043702;28;20607;-69
2022/09/12 05:07:33;;;;;;;57.60;36.92;;;12.60;99.90;;;;;;5009545;28;20044;-69
2022/09/12 05:09:59;;;;;;;58.40;37.22;;;12.80;99.90;;;;;;5043341;28;20044;-69
2022/09/12 05:12:25;;;;;;;56.33;36.70;;;12.80;99.90;;;;;;5026324;28;20051;-69
2022/09/12 05:14:50;;;;;;;53.83;35.30;;;12.80;99.90;;;;;;5026066;28;20053;-69
2022/09/12 05:17:16;;;;;;;58.50;37.83;;;12.90;99.90;;;;;;5031209;28;20126;-69
2022/09/12 05:19:42;;;;;;;56.83;37.47;;;12.90;99.90;;;;;;5025036;28;20175;-69
2022/09/12 05:22:08;;;;;;;54.90;37.00;;;13.00;99.90;;;;;;5022030;28;20124;-68
2022/09/12 05:24:34;;;;;;;60.25;38.80;;;13.00;99.90;;;;;;5026126;28;20469;-69
2022/09/12 05:27:02;;;;;;;58.70;37.72;;;13.10;99.90;;;;;;5027502;28;20451;-69
2022/09/12 05:29:27;;;;;;;56.38;36.88;;;13.20;99.90;;;;;;5007612;28;20041;-69
2022/09/12 05:31:53;;;;;;;53.33;36.03;;;13.20;99.90;;;;;;5041292;28;20048;-69
2022/09/12 05:34:19;;;;;;;57.50;36.80;;;13.30;99.90;;;;;;5041335;28;20058;-68
2022/09/12 05:36:45;;;;;;;52.88;36.72;;;13.30;99.90;;;;;;5008116;28;20485;-69
2022/09/12 05:39:11;;;;;;;50.92;35.80;;;13.40;99.90;;;;;;5043429;28;20045;-69
2022/09/12 05:41:37;;;;;;;54.55;35.95;;;13.40;99.90;;;;;;5022279;28;20188;-70
2022/09/12 05:44:05;;;;;;;51.92;34.40;;;13.30;99.90;;;;;;5020646;28;20049;-70
2022/09/12 05:46:36;;;;;;;48.63;34.58;;;13.40;99.90;;;;;;5030641;28;20124;-70
2022/09/12 05:49:03;;;;;;;;;;;13.50;99.90;;;;;;5022215;28;20504;-69
2022/09/12 05:51:33;;;;;;;47.83;34.08;;;13.50;99.90;;;;;;5040828;28;20335;-69
2022/09/12 05:54:00;;;;;;;49.03;34.47;;;13.60;99.90;;;;;;5037704;28;20045;-70
2022/09/12 05:56:32;;;;;;;45.88;33.33;;;13.60;99.90;;;;;;5010884;28;20049;-70
2022/09/12 05:59:06;;;;;;;50.78;34.30;;;13.60;99.90;;;;;;5019582;28;20217;-70
2022/09/12 06:01:33;;;;;;;50.45;34.60;;;13.60;99.90;;;;;;5041324;28;20181;-69
2022/09/12 06:04:02;;;;;;;48.90;33.47;;;13.60;99.90;;;;;;5038609;28;20194;-70
2022/09/12 06:06:29;;;;;;;51.25;33.42;;;13.70;99.90;;;;;;5031611;28;20483;-70
2022/09/12 06:08:57;;;;;;;48.80;34.25;;;13.70;99.90;;;;;;5020489;28;20049;-69
2022/09/12 06:11:25;;;;;;;47.60;34.45;;;13.70;99.90;;;;;;5043367;28;20532;-69
2022/09/12 06:13:52;;;;;;;47.58;33.38;;;13.80;99.90;;;;;;5043164;28;20048;-70
2022/09/12 06:16:19;;;;;;;46.13;32.90;;;13.70;99.90;;;;;;5014073;28;20132;-71
2022/09/12 06:18:53;;;;;;;44.92;32.70;;;13.80;99.90;;;;;;5020653;28;20106;-69
2022/09/12 06:21:20;;;;;;;44.63;32.67;;;13.80;99.90;;;;;;5043577;28;20045;-69
2022/09/12 06:23:47;;;;;;;51.00;35.05;;;13.90;99.90;;;;;;5020426;28;20045;-69
2022/09/12 06:26:15;;;;;;;43.47;32.40;;;13.90;99.90;;;;;;5036627;28;20124;-70
2022/09/12 06:28:43;;;;;;;49.25;32.35;;;13.90;99.90;;;;;;5029952;28;20120;-70
2022/09/12 06:31:14;;;;;;;46.38;32.60;;;14.00;99.90;;;;;;5001595;28;20555;-70
2022/09/12 06:33:44;;;;;;;47.47;32.17;;;14.00;99.90;;;;;;5017904;28;20131;-70
2022/09/12 06:36:12;;;;;;;45.75;32.50;;;14.10;99.90;;;;;;5035910;28;20051;-70
2022/09/12 06:38:38;;;;;;;46.30;33.83;;;14.10;99.90;;;;;;5031958;28;20036;-70
2022/09/12 06:41:06;;;;;;;45.42;32.35;;;14.10;99.90;;;;;;5038751;28;20064;-70
2022/09/12 06:43:32;;;;;;;50.08;34.53;;;14.10;99.90;;;;;;5041206;28;20045;-69
2022/09/12 06:45:58;;;;;;;46.95;34.22;;;14.30;99.90;;;;;;5039942;28;20090;-70
2022/09/12 06:48:24;;;;;;;53.28;33.42;;;14.10;99.90;;;;;;5023626;28;20053;-69
2022/09/12 06:50:58;;;;;;;44.70;33.03;;;14.20;99.90;;;;;;5023203;28;20463;-70
2022/09/12 06:53:25;;;;;;;46.97;33.22;;;14.30;99.90;;;;;;5036419;28;20053;-70
2022/09/12 06:56:05;;;;;;;49.03;34.22;;;14.30;99.90;;;;;;5038779;28;20778;-70
2022/09/12 06:58:32;;;;;;;54.97;35.38;;;14.30;99.90;;;;;;5010090;28;20041;-70
2022/09/12 07:01:04;;;;;;;51.05;34.30;;;14.40;99.90;;;;;;5037306;28;20053;-70
2022/09/12 07:03:31;;;;;;;53.35;35.67;;;14.40;99.90;;;;;;5020507;28;20587;-70
2022/09/12 07:06:01;;;;;;;53.63;35.38;;;14.40;99.90;;;;;;5042511;28;20048;-70
2022/09/12 07:08:30;;;;;;;57.78;38.53;;;14.50;99.90;;;;;;5024598;28;20081;-70
2022/09/12 07:10:57;;;;;;;54.70;37.90;;;14.50;99.90;;;;;;5022144;28;20048;-70
2022/09/12 07:13:24;;;;;;;58.42;39.05;;;14.60;99.90;;;;;;5019196;28;20524;-70
2022/09/12 07:15:50;;;;;;;59.70;38.85;;;14.60;99.90;;;;;;5040615;28;20052;-70
2022/09/12 07:18:16;;;;;;;61.53;40.63;;;14.60;99.90;;;;;;5023437;28;20132;-70
2022/09/12 07:20:42;;;;;;;61.30;41.67;;;14.70;99.90;;;;;;5040727;28;20550;-70
2022/09/12 07:23:08;;;;;;;63.60;42.03;;;14.70;99.90;;;;;;5038977;28;20454;-70
2022/09/12 07:25:34;;;;;;;63.33;41.83;;;14.80;99.90;;;;;;5021506;28;20500;-70
2022/09/12 07:27:59;;;;;;;72.00;45.10;;;14.80;99.90;;;;;;5007827;28;20048;-70
2022/09/12 07:30:25;;;;;;;71.00;44.13;;;14.90;99.90;;;;;;5040512;28;20412;-70
2022/09/12 07:32:52;;;;;;;68.97;42.55;;;14.90;99.90;;;;;;5021566;28;20042;-70
2022/09/12 07:35:19;;;;;;;68.45;42.75;;;15.00;99.90;;;;;;5038514;28;20483;-70
2022/09/12 07:37:44;;;;;;;71.05;44.28;;;15.00;99.90;;;;;;5007627;28;20044;-70
2022/09/12 07:40:10;;;;;;;67.30;43.72;;;15.00;99.90;;;;;;5038178;28;20119;-70
2022/09/12 07:42:36;;;;;;;65.35;41.35;;;15.10;99.90;;;;;;5039852;28;20138;-70
2022/09/12 07:45:02;;;;;;;72.03;45.03;;;15.10;99.90;;;;;;5036144;28;20048;-70
2022/09/12 07:47:28;;;;;;;69.72;43.17;;;15.20;99.90;;;;;;5010500;28;20098;-69
2022/09/12 07:49:53;;;;;;;70.47;44.40;;;15.20;99.90;;;;;;5038139;28;20060;-70
2022/09/12 07:52:19;;;;;;;70.75;43.00;;;15.20;99.90;;;;;;5005482;28;20416;-70
2022/09/12 07:54:45;;;;;;;67.32;43.30;;;15.20;99.90;;;;;;5038191;28;20068;-70
2022/09/12 07:57:10;;;;;;;78.10;45.20;;;15.20;99.90;;;;;;5005301;28;20565;-70
2022/09/12 07:59:41;;;;;;;69.70;43.97;;;15.30;99.90;;;;;;5019830;28;20053;-70
2022/09/12 08:02:12;;;;;;;65.03;42.73;;;15.30;99.90;;;;;;5039344;28;20516;-70
2022/09/12 08:04:37;;;;;;;71.25;43.78;;;15.30;99.90;;;;;;5040491;28;20073;-70
2022/09/12 08:07:03;;;;;;;71.45;45.67;;;15.40;99.90;;;;;;5024588;28;20132;-70
2022/09/12 08:09:28;;;;;;;71.93;44.83;;;15.40;99.90;;;;;;5020207;28;20496;-70
2022/09/12 08:11:54;;;;;;;67.95;43.40;;;15.50;99.90;;;;;;5037587;28;20045;-70
2022/09/12 08:14:20;;;;;;;73.47;43.17;;;15.50;99.90;;;;;;5038497;28;20041;-70
2022/09/12 08:16:47;;;;;;;66.95;41.97;;;15.50;99.90;;;;;;5024529;28;20120;-70
2022/09/12 08:19:12;;;;;;;70.13;44.50;;;15.60;99.90;;;;;;5037677;28;20045;-70
2022/09/12 08:21:38;;;;;;;68.78;43.58;;;15.60;99.90;;;;;;5020701;28;20056;-70
2022/09/12 08:24:05;;;;;;;68.90;43.67;;;15.60;99.90;;;;;;5019952;28;20156;-70
2022/09/12 08:26:32;;;;;;;65.63;42.00;;;15.70;99.90;;;;;;5026684;28;20056;-71
2022/09/12 08:28:58;;;;;;;70.20;44.90;;;15.80;99.90;;;;;;5038001;28;20037;-70
2022/09/12 08:31:26;;;;;;;66.40;44.58;;;15.90;99.90;;;;;;5039648;28;20485;-70
2022/09/12 08:33:57;;;;;;;72.25;45.53;;;15.90;99.90;;;;;;5022086;28;20563;-70
2022/09/12 08:36:25;;;;;;;71.50;44.47;;;16.10;99.90;;;;;;5028342;28;20088;-70
2022/09/12 08:38:55;;;;;;;68.03;42.88;;;16.10;99.90;;;;;;5014104;28;20045;-70
2022/09/12 08:41:37;;;;;;;76.05;47.38;;;16.20;99.90;;;;;;5018529;28;20141;-70
2022/09/12 08:44:25;;;;;;;72.88;43.75;;;16.30;99.90;;;;;;5038606;28;20420;-70
2022/09/12 08:47:05;;;;;;;72.75;45.42;;;16.30;99.90;;;;;;5029588;28;20045;-71
2022/09/12 08:49:57;;;;;;;77.22;45.75;;;16.30;99.90;;;;;;5022564;28;20737;-70
2022/09/12 08:52:48;;;;;;;72.05;42.55;;;16.40;99.90;;;;;;5022945;28;20045;-70
2022/09/12 08:55:36;;;;;;;67.78;44.03;;;16.50;99.90;;;;;;5041184;28;20496;-70
2022/09/12 08:58:19;;;;;;;72.88;44.08;;;16.60;99.90;;;;;;5024525;28;20056;-70
2022/09/12 09:00:54;;;;;;;68.30;43.78;;;16.60;99.90;;;;;;5025176;28;20048;-70
2022/09/12 09:04:03;;;;;;;69.90;44.38;;;16.70;99.90;;;;;;5003375;28;20439;-70
2022/09/12 09:06:44;;;;;;;67.13;44.08;;;16.80;99.90;;;;;;5011296;28;20103;-71
2022/09/12 09:09:34;;;;;;;69.90;44.05;;;17.00;99.90;;;;;;5019951;28;20385;-71
2022/09/12 09:12:41;;;;;;;72.97;43.33;;;17.10;99.90;;;;;;5038567;28;20036;-69
2022/09/12 09:15:32;;;;;;;69.30;42.90;;;17.30;99.90;;;;;;4979597;28;20046;-70
2022/09/12 09:18:16;;;;;;;66.65;43.17;;;17.50;99.90;;;;;;5025505;28;20045;-70
2022/09/12 09:21:10;;;;;;;60.60;41.03;;;17.50;99.90;;;;;;5040964;28;20049;-70
2022/09/12 09:23:46;;;;;;;62.58;41.28;;;17.50;99.90;;;;;;5039538;28;20500;-70
2022/09/12 09:26:21;;;;;;;63.05;41.45;;;17.60;99.90;;;;;;5033784;28;20049;-71
2022/09/12 09:28:54;;;;;;;64.50;42.53;;;17.80;99.90;;;;;;5019944;28;20130;-71
2022/09/12 09:31:22;;;;;;;62.08;40.60;;;17.90;99.90;;;;;;5021683;28;20121;-70
2022/09/12 09:33:54;;;;;;;61.83;40.65;;;17.80;99.90;;;;;;5041805;28;20045;-71
2022/09/12 09:36:53;;;;;;;57.28;38.97;;;18.00;99.90;;;;;;5029654;28;20436;-71
2022/09/12 09:39:21;;;;;;;62.30;40.08;;;18.10;99.90;;;;;;5041054;28;20051;-70
2022/09/12 09:42:18;;;;;;;61.90;40.70;;;18.20;99.90;;;;;;5040450;28;20483;-71
2022/09/12 09:44:47;;;;;;;59.05;40.25;;;18.40;99.90;;;;;;5019163;28;20041;-70
2022/09/12 09:47:14;;;;;;;62.35;42.08;;;18.60;99.90;;;;;;5009200;28;20046;-71
2022/09/12 09:49:40;;;;;;;60.10;40.72;;;18.70;99.90;;;;;;5021365;28;20061;-72
2022/09/12 09:52:07;;;;;;;63.20;42.17;;;18.60;99.90;;;;;;5043021;28;20053;-71
2022/09/12 09:54:44;;;;;;;58.47;39.67;;;18.70;99.90;;;;;;5042304;28;20048;-71
2022/09/12 09:57:35;;;;;;;64.82;42.50;;;18.80;99.90;;;;;;5005215;28;20072;-70
2022/09/12 10:00:29;;;;;;;55.80;38.95;;;18.90;99.90;;;;;;5041038;28;20212;-70
2022/09/12 10:03:12;;;;;;;58.42;38.67;;;19.10;99.90;;;;;;5037289;28;20056;-71
2022/09/12 10:05:47;;;;;;;66.35;40.15;;;19.20;99.90;;;;;;5039719;28;20080;-70
2022/09/12 10:08:29;;;;;;;56.83;38.35;;;19.10;99.90;;;;;;5006691;28;20041;-71
2022/09/12 10:11:17;;;;;;;;;;;19.20;99.90;;;;;;5019616;28;20053;-70
2022/09/12 10:13:50;;;;;;;53.40;35.00;;;19.40;99.90;;;;;;5011944;28;20391;-71
2022/09/12 10:16:27;;;;;;;51.38;36.20;;;19.70;99.90;;;;;;5030991;28;20572;-71
2022/09/12 10:18:55;;;;;;;50.55;31.77;;;19.90;99.90;;;;;;5036672;28;20056;-70
2022/09/12 10:21:35;;;;;;;47.10;32.75;;;20.00;99.90;;;;;;5039090;28;20048;-70
2022/09/12 10:24:12;;;;;;;40.65;26.10;;;20.00;99.90;;;;;;5040718;28;20085;-70
2022/09/12 10:26:39;;;;;;;43.03;27.92;;;20.10;99.90;;;;;;5026441;28;20053;-71
2022/09/12 10:29:30;;;;;;;35.00;24.23;;;20.10;99.90;;;;;;5023926;28;20124;-71
2022/09/12 10:32:07;;;;;;;36.15;23.30;;;20.10;99.90;;;;;;5030309;28;20570;-71
2022/09/12 10:34:43;;;;;;;32.97;22.80;;;20.10;99.90;;;;;;5019184;28;20536;-71
2022/09/12 10:37:17;;;;;;;35.10;23.52;;;20.20;99.90;;;;;;5023659;28;20377;-71
2022/09/12 10:39:54;;;;;;;30.25;20.45;;;20.30;99.90;;;;;;5021277;28;20040;-71
2022/09/12 10:42:46;;;;;;;30.17;20.85;;;20.40;99.90;;;;;;5039547;28;20048;-70
2022/09/12 10:45:36;;;;;;;27.83;19.88;;;20.40;99.90;;;;;;5020595;28;20468;-70
2022/09/12 10:48:30;;;;;;;32.28;20.77;;;20.40;99.90;;;;;;5004045;28;20045;-70
2022/09/12 10:50:57;;;;;;;30.80;20.35;;;20.50;99.90;;;;;;5006863;28;20257;-71
2022/09/12 10:53:24;;;;;;;31.85;21.40;;;20.50;99.90;;;;;;5018766;28;20053;-71
2022/09/12 10:56:28;;;;;;;23.48;15.95;;;20.60;99.90;;;;;;5041090;28;20234;-71
2022/09/12 10:59:16;;;;;;;30.10;19.20;;;20.50;99.90;;;;;;4995731;28;20057;-70
2022/09/12 11:01:45;;;;;;;27.80;17.15;;;20.70;99.90;;;;;;5004240;28;20050;-70
2022/09/12 11:04:29;;;;;;;32.38;22.00;;;20.70;99.90;;;;;;5022499;28;20049;-71
2022/09/12 11:06:55;;;;;;;33.15;21.70;;;20.80;99.90;;;;;;5022934;28;20049;-71
2022/09/12 11:09:31;;;;;;;32.50;20.38;;;20.90;99.90;;;;;;5038605;28;20049;-71
2022/09/12 11:12:12;;;;;;;33.45;21.45;;;20.80;99.90;;;;;;5038116;28;20059;-71
2022/09/12 11:15:02;;;;;;;33.85;21.27;;;20.90;99.90;;;;;;5011189;28;20041;-70
2022/09/12 11:17:55;;;;;;;26.60;17.52;;;21.10;99.90;;;;;;4979522;28;20052;-70
2022/09/12 11:21:00;;;;;;;22.30;16.15;;;21.30;99.90;;;;;;5010415;28;20535;-70
2022/09/12 11:23:41;;;;;;;21.77;14.50;;;21.30;99.90;;;;;;5011896;28;20784;-70
2022/09/12 11:26:18;;;;;;;23.45;14.63;;;21.30;99.90;;;;;;5010552;28;20089;-71
2022/09/12 11:29:18;;;;;;;19.20;12.57;;;21.50;99.90;;;;;;5006455;28;20085;-70
2022/09/12 11:32:24;;;;;;;26.83;16.27;;;21.60;99.90;;;;;;5009012;28;20057;-70
2022/09/12 11:35:08;;;;;;;22.15;15.10;;;21.60;99.90;;;;;;5012606;28;20424;-71
2022/09/12 11:37:49;;;;;;;25.58;13.82;;;21.60;99.90;;;;;;4999148;28;20085;-70
2022/09/12 11:40:19;;;;;;;19.90;12.25;;;21.80;99.90;;;;;;5015808;28;20149;-70
2022/09/12 11:42:47;;;;;;;16.38;11.75;;;21.90;99.90;;;;;;5012877;28;20045;-70
2022/09/12 11:45:22;;;;;;;15.82;10.75;;;21.80;99.90;;;;;;5016081;28;20053;-70
2022/09/12 11:47:56;;;;;;;14.05;8.82;;;21.70;99.90;;;;;;4996904;28;20112;-68
2022/09/12 11:50:28;;;;;;;12.63;8.68;;;21.70;99.90;;;;;;5032700;28;20067;-70
2022/09/12 11:53:04;;;;;;;11.38;7.57;;;21.60;99.90;;;;;;5013253;28;20164;-70
2022/09/12 11:55:39;;;;;;;11.23;6.40;;;21.60;99.90;;;;;;5018926;28;20072;-70
2022/09/12 11:58:07;;;;;;;8.75;6.60;;;21.60;99.90;;;;;;5017204;28;20040;-70
2022/09/12 12:00:48;;;;;;;11.45;7.18;;;21.60;99.90;;;;;;5036093;28;20049;-70
2022/09/12 12:03:41;;;;;;;11.23;7.00;;;21.70;99.90;;;;;;5014508;28;20048;-69
2022/09/12 12:06:20;;;;;;;10.45;8.38;;;21.70;99.90;;;;;;5008783;28;20102;-71
2022/09/12 12:08:47;;;;;;;14.18;10.00;;;21.80;99.90;;;;;;5013120;28;20577;-70
2022/09/12 12:11:38;;;;;;;11.45;8.40;;;21.70;99.90;;;;;;5012772;28;20547;-70
2022/09/12 12:14:13;;;;;;;13.73;8.52;;;21.80;99.90;;;;;;5013675;28;20065;-70
2022/09/12 12:16:40;;;;;;;12.32;8.18;;;21.80;99.90;;;;;;5022965;28;20041;-70
2022/09/12 12:19:31;;;;;;;13.32;10.23;;;22.00;99.90;;;;;;5028235;28;20041;-70
2022/09/12 12:22:06;;;;;;;13.75;10.80;;;22.20;99.90;;;;;;5041353;28;20049;-70
2022/09/12 12:24:33;;;;;;;17.58;12.32;;;22.00;99.90;;;;;;5034912;28;20075;-70
2022/09/12 12:27:04;;;;;;;13.45;9.20;;;21.90;99.90;;;;;;5005840;28;20120;-70
2022/09/12 12:29:40;;;;;;;;;;;21.80;99.90;;;;;;5033160;28;20052;-70
2022/09/12 12:32:06;;;;;;;13.65;10.07;;;21.80;99.90;;;;;;5016916;28;19925;-71
2022/09/12 12:34:38;;;;;;;12.90;9.02;;;21.80;99.90;;;;;;5005180;28;20458;-70
2022/09/12 12:37:21;;;;;;;12.60;8.60;;;21.70;99.90;;;;;;5018277;28;20076;-70
2022/09/12 12:39:59;;;;;;;12.02;7.53;;;21.70;99.90;;;;;;5035031;28;20065;-70
2022/09/12 12:42:34;;;;;;;13.23;7.80;;;21.80;99.90;;;;;;5034745;28;20053;-70
2022/09/12 12:45:25;;;;;;;12.20;7.75;;;21.80;99.90;;;;;;5038958;28;20048;-70
2022/09/12 12:47:54;;;;;;;9.95;6.72;;;21.90;99.90;;;;;;5002892;28;20045;-70
2022/09/12 12:50:27;;;;;;;10.13;7.90;;;22.10;99.90;;;;;;5037212;28;20464;-70
2022/09/12 12:52:58;;;;;;;10.52;6.45;;;22.10;99.90;;;;;;5035528;28;20049;-70
2022/09/12 12:55:37;;;;;;;11.82;7.80;;;22.40;99.90;;;;;;5035367;28;20385;-70
2022/09/12 12:58:06;;;;;;;10.18;7.63;;;22.30;99.90;;;;;;5019573;28;20036;-70
2022/09/12 13:00:37;;;;;;;11.57;8.00;;;22.20;99.90;;;;;;5034106;28;20049;-70